sensor_id;sensor_type;location;lat;lon;timestamp;P1;durP1;ratioP1;P2;durP2;ratioP2
47966;SDS011;33733;52.456;13.620;2022-09-29T00:00:59;6.57;;;2.17;;
47966;SDS011;33733;52.456;13.620;2022-09-29T00:03:27;6.68;;;2.65;;
47966;SDS011;33733;52.456;13.620;2022-09-29T00:05:56;6.40;;;2.67;;
47966;SDS011;33733;52.456;13.620;2022-09-29T00:08:24;6.25;;;2.65;;
47966;SDS011;33733;52.456;13.620;2022-09-29T00:10:52;6.35;;;2.47;;
47966;SDS011;33733;52.456;13.620;2022-09-29T00:13:19;6.60;;;2.60;;
47966;SDS011;33733;52.456;13.620;2022-09-29T00:15:56;7.40;;;2.60;;
47966;SDS011;33733;52.456;13.620;2022-09-29T00:18:26;7.47;;;2.50;;
47966;SDS011;33733;52.456;13.620;2022-09-29T00:23:23;7.70;;;2.75;;
47966;SDS011;33733;52.456;13.620;2022-09-29T00:26:04;6.88;;;2.83;;
47966;SDS011;33733;52.456;13.620;2022-09-29T00:31:00;7.00;;;2.72;;
47966;SDS011;33733;52.456;13.620;2022-09-29T00:33:28;6.32;;;2.63;;
47966;SDS011;33733;52.456;13.620;2022-09-29T00:35:59;6.03;;;2.38;;
47966;SDS011;33733;52.456;13.620;2022-09-29T00:38:28;6.47;;;2.40;;
47966;SDS011;33733;52.456;13.620;2022-09-29T00:40:56;7.28;;;3.03;;
47966;SDS011;33733;52.456;13.620;2022-09-29T00:43:24;6.82;;;2.35;;
47966;SDS011;33733;52.456;13.620;2022-09-29T00:46:13;6.75;;;2.65;;
47966;SDS011;33733;52.456;13.620;2022-09-29T00:48:46;6.57;;;2.55;;
47966;SDS011;33733;52.456;13.620;2022-09-29T00:51:12;8.02;;;2.53;;
47966;SDS011;33733;52.456;13.620;2022-09-29T00:53:39;7.03;;;2.80;;
47966;SDS011;33733;52.456;13.620;2022-09-29T00:56:08;6.07;;;2.55;;
47966;SDS011;33733;52.456;13.620;2022-09-29T00:58:52;6.45;;;2.78;;
47966;SDS011;33733;52.456;13.620;2022-09-29T01:01:31;6.32;;;2.63;;
47966;SDS011;33733;52.456;13.620;2022-09-29T01:04:02;8.75;;;2.92;;
47966;SDS011;33733;52.456;13.620;2022-09-29T01:06:33;6.72;;;2.83;;
47966;SDS011;33733;52.456;13.620;2022-09-29T01:09:06;7.20;;;3.10;;
47966;SDS011;33733;52.456;13.620;2022-09-29T01:11:40;6.70;;;2.78;;
47966;SDS011;33733;52.456;13.620;2022-09-29T01:14:08;6.68;;;3.15;;
47966;SDS011;33733;52.456;13.620;2022-09-29T01:16:36;8.57;;;2.78;;
47966;SDS011;33733;52.456;13.620;2022-09-29T01:19:13;6.78;;;2.88;;
47966;SDS011;33733;52.456;13.620;2022-09-29T01:21:53;5.88;;;2.42;;
47966;SDS011;33733;52.456;13.620;2022-09-29T01:27:12;6.85;;;2.55;;
47966;SDS011;33733;52.456;13.620;2022-09-29T01:35:47;7.05;;;2.88;;
47966;SDS011;33733;52.456;13.620;2022-09-29T01:38:21;7.32;;;2.90;;
47966;SDS011;33733;52.456;13.620;2022-09-29T01:41:09;8.55;;;2.95;;
47966;SDS011;33733;52.456;13.620;2022-09-29T01:43:52;6.07;;;2.28;;
47966;SDS011;33733;52.456;13.620;2022-09-29T01:46:23;5.97;;;2.05;;
47966;SDS011;33733;52.456;13.620;2022-09-29T01:48:53;8.65;;;2.95;;
47966;SDS011;33733;52.456;13.620;2022-09-29T01:51:22;5.72;;;2.28;;
47966;SDS011;33733;52.456;13.620;2022-09-29T01:57:05;8.68;;;2.80;;
47966;SDS011;33733;52.456;13.620;2022-09-29T01:59:10;7.80;;;2.72;;
47966;SDS011;33733;52.456;13.620;2022-09-29T02:01:59;7.38;;;3.15;;
47966;SDS011;33733;52.456;13.620;2022-09-29T02:04:37;6.65;;;2.83;;
47966;SDS011;33733;52.456;13.620;2022-09-29T02:07:31;8.85;;;3.13;;
47966;SDS011;33733;52.456;13.620;2022-09-29T02:10:01;6.15;;;2.45;;
47966;SDS011;33733;52.456;13.620;2022-09-29T02:12:34;7.68;;;2.75;;
47966;SDS011;33733;52.456;13.620;2022-09-29T02:15:04;9.23;;;3.97;;
47966;SDS011;33733;52.456;13.620;2022-09-29T02:17:33;7.75;;;3.45;;
47966;SDS011;33733;52.456;13.620;2022-09-29T02:20:02;9.18;;;4.32;;
47966;SDS011;33733;52.456;13.620;2022-09-29T02:22:29;9.32;;;4.28;;
47966;SDS011;33733;52.456;13.620;2022-09-29T02:24:56;9.30;;;3.85;;
47966;SDS011;33733;52.456;13.620;2022-09-29T02:27:27;8.45;;;3.72;;
47966;SDS011;33733;52.456;13.620;2022-09-29T02:29:58;6.43;;;2.55;;
47966;SDS011;33733;52.456;13.620;2022-09-29T02:32:25;9.15;;;3.10;;
47966;SDS011;33733;52.456;13.620;2022-09-29T02:34:52;6.55;;;2.80;;
47966;SDS011;33733;52.456;13.620;2022-09-29T02:37:34;11.32;;;3.83;;
47966;SDS011;33733;52.456;13.620;2022-09-29T02:40:21;6.95;;;2.90;;
47966;SDS011;33733;52.456;13.620;2022-09-29T02:45:40;12.65;;;4.60;;
47966;SDS011;33733;52.456;13.620;2022-09-29T02:51:24;12.73;;;4.53;;
47966;SDS011;33733;52.456;13.620;2022-09-29T02:59:35;11.00;;;4.72;;
47966;SDS011;33733;52.456;13.620;2022-09-29T03:02:03;14.35;;;5.18;;
47966;SDS011;33733;52.456;13.620;2022-09-29T03:04:30;11.45;;;4.50;;
47966;SDS011;33733;52.456;13.620;2022-09-29T03:06:56;11.10;;;4.78;;
47966;SDS011;33733;52.456;13.620;2022-09-29T03:09:23;13.07;;;5.53;;
47966;SDS011;33733;52.456;13.620;2022-09-29T03:11:50;10.23;;;4.45;;
47966;SDS011;33733;52.456;13.620;2022-09-29T03:14:16;11.32;;;4.85;;
47966;SDS011;33733;52.456;13.620;2022-09-29T03:16:43;10.38;;;5.13;;
47966;SDS011;33733;52.456;13.620;2022-09-29T03:19:09;10.38;;;4.20;;
47966;SDS011;33733;52.456;13.620;2022-09-29T03:21:36;11.23;;;5.25;;
47966;SDS011;33733;52.456;13.620;2022-09-29T03:24:03;14.15;;;5.60;;
47966;SDS011;33733;52.456;13.620;2022-09-29T03:26:29;13.43;;;5.43;;
47966;SDS011;33733;52.456;13.620;2022-09-29T03:28:56;9.80;;;4.80;;
47966;SDS011;33733;52.456;13.620;2022-09-29T03:31:22;11.93;;;5.85;;
47966;SDS011;33733;52.456;13.620;2022-09-29T03:33:49;10.90;;;5.57;;
47966;SDS011;33733;52.456;13.620;2022-09-29T03:36:16;10.02;;;4.80;;
47966;SDS011;33733;52.456;13.620;2022-09-29T03:38:42;11.50;;;5.40;;
47966;SDS011;33733;52.456;13.620;2022-09-29T03:41:10;15.13;;;5.57;;
47966;SDS011;33733;52.456;13.620;2022-09-29T03:43:37;11.32;;;5.47;;
47966;SDS011;33733;52.456;13.620;2022-09-29T03:46:03;13.68;;;5.35;;
47966;SDS011;33733;52.456;13.620;2022-09-29T03:48:31;12.13;;;5.50;;
47966;SDS011;33733;52.456;13.620;2022-09-29T03:51:00;9.98;;;4.65;;
47966;SDS011;33733;52.456;13.620;2022-09-29T03:53:26;12.48;;;5.70;;
47966;SDS011;33733;52.456;13.620;2022-09-29T03:55:53;11.70;;;5.55;;
47966;SDS011;33733;52.456;13.620;2022-09-29T03:58:19;11.75;;;5.45;;
47966;SDS011;33733;52.456;13.620;2022-09-29T04:00:46;10.30;;;4.90;;
47966;SDS011;33733;52.456;13.620;2022-09-29T04:03:14;10.15;;;4.43;;
47966;SDS011;33733;52.456;13.620;2022-09-29T04:05:41;12.23;;;5.28;;
47966;SDS011;33733;52.456;13.620;2022-09-29T04:08:07;10.60;;;4.70;;
47966;SDS011;33733;52.456;13.620;2022-09-29T04:10:34;11.32;;;4.30;;
47966;SDS011;33733;52.456;13.620;2022-09-29T04:13:01;8.60;;;3.70;;
47966;SDS011;33733;52.456;13.620;2022-09-29T04:15:28;7.85;;;3.15;;
47966;SDS011;33733;52.456;13.620;2022-09-29T04:17:54;10.13;;;3.63;;
47966;SDS011;33733;52.456;13.620;2022-09-29T04:20:21;7.75;;;3.53;;
47966;SDS011;33733;52.456;13.620;2022-09-29T04:22:48;9.45;;;4.57;;
47966;SDS011;33733;52.456;13.620;2022-09-29T04:25:15;10.98;;;4.95;;
47966;SDS011;33733;52.456;13.620;2022-09-29T04:27:41;9.02;;;4.32;;
47966;SDS011;33733;52.456;13.620;2022-09-29T04:30:08;11.07;;;5.22;;
47966;SDS011;33733;52.456;13.620;2022-09-29T04:32:35;10.00;;;4.32;;
47966;SDS011;33733;52.456;13.620;2022-09-29T04:35:02;10.85;;;4.85;;
47966;SDS011;33733;52.456;13.620;2022-09-29T04:37:29;11.68;;;4.72;;
47966;SDS011;33733;52.456;13.620;2022-09-29T04:39:56;9.80;;;4.65;;
47966;SDS011;33733;52.456;13.620;2022-09-29T04:42:23;10.70;;;5.07;;
47966;SDS011;33733;52.456;13.620;2022-09-29T04:44:49;7.28;;;3.08;;
47966;SDS011;33733;52.456;13.620;2022-09-29T04:47:16;10.55;;;4.63;;
47966;SDS011;33733;52.456;13.620;2022-09-29T04:49:42;11.48;;;4.25;;
47966;SDS011;33733;52.456;13.620;2022-09-29T04:52:12;13.10;;;5.57;;
47966;SDS011;33733;52.456;13.620;2022-09-29T04:54:39;12.25;;;5.25;;
47966;SDS011;33733;52.456;13.620;2022-09-29T04:57:06;10.70;;;5.40;;
47966;SDS011;33733;52.456;13.620;2022-09-29T04:59:32;9.25;;;4.68;;
47966;SDS011;33733;52.456;13.620;2022-09-29T05:01:59;9.15;;;4.05;;
47966;SDS011;33733;52.456;13.620;2022-09-29T05:04:25;10.93;;;5.63;;
47966;SDS011;33733;52.456;13.620;2022-09-29T05:06:52;9.73;;;4.55;;
47966;SDS011;33733;52.456;13.620;2022-09-29T05:09:20;11.88;;;5.40;;
47966;SDS011;33733;52.456;13.620;2022-09-29T05:11:51;10.95;;;4.82;;
47966;SDS011;33733;52.456;13.620;2022-09-29T05:14:17;12.02;;;4.68;;
47966;SDS011;33733;52.456;13.620;2022-09-29T05:16:44;9.48;;;4.55;;
47966;SDS011;33733;52.456;13.620;2022-09-29T05:19:10;11.40;;;4.75;;
47966;SDS011;33733;52.456;13.620;2022-09-29T05:21:37;10.88;;;4.75;;
47966;SDS011;33733;52.456;13.620;2022-09-29T05:24:03;9.63;;;4.80;;
47966;SDS011;33733;52.456;13.620;2022-09-29T05:26:30;12.88;;;5.32;;
47966;SDS011;33733;52.456;13.620;2022-09-29T05:28:57;12.45;;;5.47;;
47966;SDS011;33733;52.456;13.620;2022-09-29T05:31:23;10.05;;;4.60;;
47966;SDS011;33733;52.456;13.620;2022-09-29T05:33:50;11.95;;;4.57;;
47966;SDS011;33733;52.456;13.620;2022-09-29T05:36:17;13.40;;;5.95;;
47966;SDS011;33733;52.456;13.620;2022-09-29T05:38:43;11.25;;;5.70;;
47966;SDS011;33733;52.456;13.620;2022-09-29T05:41:10;10.57;;;4.70;;
47966;SDS011;33733;52.456;13.620;2022-09-29T05:43:38;10.75;;;5.07;;
47966;SDS011;33733;52.456;13.620;2022-09-29T05:46:05;12.27;;;5.75;;
47966;SDS011;33733;52.456;13.620;2022-09-29T05:48:33;13.05;;;5.63;;
47966;SDS011;33733;52.456;13.620;2022-09-29T05:51:06;12.68;;;5.88;;
47966;SDS011;33733;52.456;13.620;2022-09-29T05:56:04;9.48;;;4.25;;
47966;SDS011;33733;52.456;13.620;2022-09-29T05:58:34;15.07;;;6.70;;
47966;SDS011;33733;52.456;13.620;2022-09-29T06:01:05;13.15;;;6.30;;
47966;SDS011;33733;52.456;13.620;2022-09-29T06:03:36;12.20;;;5.82;;
47966;SDS011;33733;52.456;13.620;2022-09-29T06:06:04;13.63;;;5.40;;
47966;SDS011;33733;52.456;13.620;2022-09-29T06:08:31;15.88;;;6.07;;
47966;SDS011;33733;52.456;13.620;2022-09-29T06:11:05;17.35;;;6.03;;
47966;SDS011;33733;52.456;13.620;2022-09-29T06:13:36;12.50;;;5.57;;
47966;SDS011;33733;52.456;13.620;2022-09-29T06:18:29;11.93;;;5.60;;
47966;SDS011;33733;52.456;13.620;2022-09-29T06:21:04;12.43;;;6.00;;
47966;SDS011;33733;52.456;13.620;2022-09-29T06:23:37;16.50;;;7.03;;
47966;SDS011;33733;52.456;13.620;2022-09-29T06:26:08;14.02;;;6.38;;
47966;SDS011;33733;52.456;13.620;2022-09-29T06:28:37;11.88;;;5.30;;
47966;SDS011;33733;52.456;13.620;2022-09-29T06:31:05;15.48;;;7.55;;
47966;SDS011;33733;52.456;13.620;2022-09-29T06:33:35;15.88;;;7.38;;
47966;SDS011;33733;52.456;13.620;2022-09-29T06:36:02;11.52;;;5.05;;
47966;SDS011;33733;52.456;13.620;2022-09-29T06:38:52;14.68;;;6.60;;
47966;SDS011;33733;52.456;13.620;2022-09-29T06:41:18;14.65;;;6.70;;
47966;SDS011;33733;52.456;13.620;2022-09-29T06:43:45;10.50;;;4.35;;
47966;SDS011;33733;52.456;13.620;2022-09-29T06:46:12;14.50;;;6.47;;
47966;SDS011;33733;52.456;13.620;2022-09-29T06:48:38;11.02;;;5.15;;
47966;SDS011;33733;52.456;13.620;2022-09-29T06:51:06;17.00;;;7.53;;
47966;SDS011;33733;52.456;13.620;2022-09-29T06:53:35;15.10;;;6.60;;
47966;SDS011;33733;52.456;13.620;2022-09-29T06:56:04;16.40;;;7.15;;
47966;SDS011;33733;52.456;13.620;2022-09-29T06:58:31;17.13;;;8.57;;
47966;SDS011;33733;52.456;13.620;2022-09-29T07:01:01;8.10;;;3.63;;
47966;SDS011;33733;52.456;13.620;2022-09-29T07:03:28;15.55;;;7.00;;
47966;SDS011;33733;52.456;13.620;2022-09-29T07:05:55;17.80;;;9.02;;
47966;SDS011;33733;52.456;13.620;2022-09-29T07:08:42;19.98;;;8.45;;
47966;SDS011;33733;52.456;13.620;2022-09-29T07:11:09;16.60;;;7.80;;
47966;SDS011;33733;52.456;13.620;2022-09-29T07:13:36;17.92;;;7.07;;
47966;SDS011;33733;52.456;13.620;2022-09-29T07:16:06;18.02;;;7.68;;
47966;SDS011;33733;52.456;13.620;2022-09-29T07:18:39;14.90;;;7.55;;
47966;SDS011;33733;52.456;13.620;2022-09-29T07:21:08;19.40;;;8.10;;
47966;SDS011;33733;52.456;13.620;2022-09-29T07:23:36;15.55;;;8.65;;
47966;SDS011;33733;52.456;13.620;2022-09-29T07:26:03;16.45;;;7.88;;
47966;SDS011;33733;52.456;13.620;2022-09-29T07:28:30;18.33;;;7.97;;
47966;SDS011;33733;52.456;13.620;2022-09-29T07:30:57;17.80;;;8.25;;
47966;SDS011;33733;52.456;13.620;2022-09-29T07:33:39;19.70;;;9.18;;
47966;SDS011;33733;52.456;13.620;2022-09-29T07:36:06;16.13;;;8.07;;
47966;SDS011;33733;52.456;13.620;2022-09-29T07:38:33;18.05;;;8.50;;
47966;SDS011;33733;52.456;13.620;2022-09-29T07:41:03;20.60;;;10.43;;
47966;SDS011;33733;52.456;13.620;2022-09-29T07:43:31;17.20;;;7.80;;
47966;SDS011;33733;52.456;13.620;2022-09-29T07:45:57;15.95;;;8.18;;
47966;SDS011;33733;52.456;13.620;2022-09-29T07:48:25;17.70;;;8.00;;
47966;SDS011;33733;52.456;13.620;2022-09-29T07:51:11;21.60;;;9.15;;
47966;SDS011;33733;52.456;13.620;2022-09-29T07:53:39;18.50;;;8.68;;
47966;SDS011;33733;52.456;13.620;2022-09-29T07:56:07;20.13;;;9.18;;
47966;SDS011;33733;52.456;13.620;2022-09-29T07:58:36;18.10;;;9.25;;
47966;SDS011;33733;52.456;13.620;2022-09-29T08:01:03;20.02;;;8.52;;
47966;SDS011;33733;52.456;13.620;2022-09-29T08:03:32;18.67;;;9.30;;
47966;SDS011;33733;52.456;13.620;2022-09-29T08:05:59;21.77;;;8.95;;
47966;SDS011;33733;52.456;13.620;2022-09-29T08:08:26;18.27;;;8.27;;
47966;SDS011;33733;52.456;13.620;2022-09-29T08:10:59;15.23;;;7.75;;
47966;SDS011;33733;52.456;13.620;2022-09-29T08:13:32;20.88;;;8.18;;
47966;SDS011;33733;52.456;13.620;2022-09-29T08:16:01;19.77;;;8.30;;
47966;SDS011;33733;52.456;13.620;2022-09-29T08:18:29;20.00;;;9.05;;
47966;SDS011;33733;52.456;13.620;2022-09-29T08:20:56;16.83;;;8.30;;
47966;SDS011;33733;52.456;13.620;2022-09-29T08:23:28;17.45;;;8.88;;
47966;SDS011;33733;52.456;13.620;2022-09-29T08:26:04;22.33;;;9.98;;
47966;SDS011;33733;52.456;13.620;2022-09-29T08:28:32;18.92;;;9.52;;
47966;SDS011;33733;52.456;13.620;2022-09-29T08:31:03;17.17;;;8.55;;
47966;SDS011;33733;52.456;13.620;2022-09-29T08:33:31;16.60;;;8.32;;
47966;SDS011;33733;52.456;13.620;2022-09-29T08:35:58;18.90;;;9.65;;
47966;SDS011;33733;52.456;13.620;2022-09-29T08:38:26;19.55;;;9.05;;
47966;SDS011;33733;52.456;13.620;2022-09-29T08:40:53;19.63;;;7.82;;
47966;SDS011;33733;52.456;13.620;2022-09-29T08:43:29;19.48;;;9.10;;
47966;SDS011;33733;52.456;13.620;2022-09-29T08:46:01;14.90;;;6.18;;
47966;SDS011;33733;52.456;13.620;2022-09-29T08:48:32;18.52;;;9.32;;
47966;SDS011;33733;52.456;13.620;2022-09-29T08:51:05;16.40;;;7.65;;
47966;SDS011;33733;52.456;13.620;2022-09-29T08:53:36;17.35;;;8.52;;
47966;SDS011;33733;52.456;13.620;2022-09-29T08:56:05;17.75;;;7.53;;
47966;SDS011;33733;52.456;13.620;2022-09-29T08:58:34;18.50;;;8.38;;
47966;SDS011;33733;52.456;13.620;2022-09-29T09:04:09;18.13;;;7.95;;
47966;SDS011;33733;52.456;13.620;2022-09-29T09:12:12;17.48;;;7.38;;
47966;SDS011;33733;52.456;13.620;2022-09-29T09:21:09;14.23;;;7.18;;
47966;SDS011;33733;52.456;13.620;2022-09-29T09:23:47;16.38;;;6.40;;
47966;SDS011;33733;52.456;13.620;2022-09-29T09:26:34;21.48;;;8.35;;
47966;SDS011;33733;52.456;13.620;2022-09-29T09:29:04;17.98;;;8.60;;
47966;SDS011;33733;52.456;13.620;2022-09-29T09:31:43;14.45;;;7.57;;
47966;SDS011;33733;52.456;13.620;2022-09-29T09:37:11;14.05;;;7.60;;
47966;SDS011;33733;52.456;13.620;2022-09-29T09:42:31;13.98;;;6.70;;
47966;SDS011;33733;52.456;13.620;2022-09-29T09:45:04;14.57;;;5.95;;
47966;SDS011;33733;52.456;13.620;2022-09-29T09:47:37;15.05;;;7.03;;
47966;SDS011;33733;52.456;13.620;2022-09-29T09:52:43;16.52;;;6.80;;
47966;SDS011;33733;52.456;13.620;2022-09-29T09:55:41;13.88;;;6.80;;
47966;SDS011;33733;52.456;13.620;2022-09-29T09:58:15;14.95;;;6.28;;
47966;SDS011;33733;52.456;13.620;2022-09-29T10:01:02;14.45;;;6.32;;
47966;SDS011;33733;52.456;13.620;2022-09-29T10:03:31;8.65;;;3.47;;
47966;SDS011;33733;52.456;13.620;2022-09-29T10:05:57;10.18;;;4.55;;
47966;SDS011;33733;52.456;13.620;2022-09-29T10:10:52;11.23;;;5.57;;
47966;SDS011;33733;52.456;13.620;2022-09-29T10:13:25;12.52;;;4.90;;
47966;SDS011;33733;52.456;13.620;2022-09-29T10:16:00;13.48;;;5.40;;
47966;SDS011;33733;52.456;13.620;2022-09-29T10:21:01;9.00;;;4.35;;
47966;SDS011;33733;52.456;13.620;2022-09-29T10:25:57;13.77;;;6.05;;
47966;SDS011;33733;52.456;13.620;2022-09-29T10:28:28;10.00;;;4.85;;
47966;SDS011;33733;52.456;13.620;2022-09-29T10:31:13;10.40;;;4.57;;
47966;SDS011;33733;52.456;13.620;2022-09-29T10:33:48;11.48;;;5.38;;
47966;SDS011;33733;52.456;13.620;2022-09-29T10:38:45;11.10;;;5.30;;
47966;SDS011;33733;52.456;13.620;2022-09-29T10:41:16;10.35;;;4.88;;
47966;SDS011;33733;52.456;13.620;2022-09-29T10:43:45;9.10;;;4.15;;
47966;SDS011;33733;52.456;13.620;2022-09-29T10:49:11;10.95;;;4.38;;
47966;SDS011;33733;52.456;13.620;2022-09-29T10:51:41;10.73;;;4.20;;
47966;SDS011;33733;52.456;13.620;2022-09-29T10:54:13;9.80;;;4.70;;
47966;SDS011;33733;52.456;13.620;2022-09-29T10:56:47;10.57;;;4.25;;
47966;SDS011;33733;52.456;13.620;2022-09-29T10:59:15;11.50;;;5.38;;
47966;SDS011;33733;52.456;13.620;2022-09-29T11:01:43;11.20;;;4.82;;
47966;SDS011;33733;52.456;13.620;2022-09-29T11:06:48;12.93;;;4.47;;
47966;SDS011;33733;52.456;13.620;2022-09-29T11:14:25;9.93;;;4.45;;
47966;SDS011;33733;52.456;13.620;2022-09-29T11:16:55;8.18;;;3.55;;
47966;SDS011;33733;52.456;13.620;2022-09-29T11:19:26;13.77;;;3.92;;
47966;SDS011;33733;52.456;13.620;2022-09-29T11:32:32;8.95;;;3.88;;
47966;SDS011;33733;52.456;13.620;2022-09-29T11:38:14;7.65;;;3.53;;
47966;SDS011;33733;52.456;13.620;2022-09-29T11:43:44;6.53;;;3.22;;
47966;SDS011;33733;52.456;13.620;2022-09-29T11:49:14;9.27;;;3.63;;
47966;SDS011;33733;52.456;13.620;2022-09-29T12:00:19;4.22;;;1.40;;
47966;SDS011;33733;52.456;13.620;2022-09-29T12:11:00;6.70;;;2.33;;
47966;SDS011;33733;52.456;13.620;2022-09-29T12:13:56;5.80;;;2.20;;
47966;SDS011;33733;52.456;13.620;2022-09-29T12:16:29;7.93;;;3.33;;
47966;SDS011;33733;52.456;13.620;2022-09-29T12:19:17;9.10;;;3.15;;
47966;SDS011;33733;52.456;13.620;2022-09-29T12:21:47;9.00;;;3.38;;
47966;SDS011;33733;52.456;13.620;2022-09-29T12:24:17;8.40;;;2.25;;
47966;SDS011;33733;52.456;13.620;2022-09-29T12:26:46;7.70;;;3.28;;
47966;SDS011;33733;52.456;13.620;2022-09-29T12:29:25;7.40;;;3.50;;
47966;SDS011;33733;52.456;13.620;2022-09-29T12:31:57;7.70;;;3.65;;
47966;SDS011;33733;52.456;13.620;2022-09-29T12:34:32;7.88;;;3.78;;
47966;SDS011;33733;52.456;13.620;2022-09-29T12:37:08;9.80;;;3.58;;
47966;SDS011;33733;52.456;13.620;2022-09-29T12:42:25;7.05;;;3.20;;
47966;SDS011;33733;52.456;13.620;2022-09-29T12:50:28;7.93;;;2.90;;
47966;SDS011;33733;52.456;13.620;2022-09-29T12:52:59;5.78;;;2.42;;
47966;SDS011;33733;52.456;13.620;2022-09-29T12:55:44;7.20;;;3.30;;
47966;SDS011;33733;52.456;13.620;2022-09-29T12:58:18;7.63;;;2.55;;
47966;SDS011;33733;52.456;13.620;2022-09-29T13:00:49;7.40;;;2.50;;
47966;SDS011;33733;52.456;13.620;2022-09-29T13:04:10;9.82;;;3.17;;
47966;SDS011;33733;52.456;13.620;2022-09-29T13:20:19;6.30;;;2.75;;
47966;SDS011;33733;52.456;13.620;2022-09-29T13:28:58;6.15;;;2.20;;
47966;SDS011;33733;52.456;13.620;2022-09-29T13:31:28;9.70;;;2.70;;
47966;SDS011;33733;52.456;13.620;2022-09-29T13:33:59;7.07;;;2.05;;
47966;SDS011;33733;52.456;13.620;2022-09-29T13:36:28;5.18;;;1.90;;
47966;SDS011;33733;52.456;13.620;2022-09-29T13:39:02;4.60;;;1.40;;
47966;SDS011;33733;52.456;13.620;2022-09-29T13:51:50;7.93;;;2.20;;
47966;SDS011;33733;52.456;13.620;2022-09-29T13:54:24;4.93;;;1.90;;
47966;SDS011;33733;52.456;13.620;2022-09-29T13:59:47;4.75;;;1.75;;
47966;SDS011;33733;52.456;13.620;2022-09-29T14:04:56;5.50;;;1.77;;
47966;SDS011;33733;52.456;13.620;2022-09-29T14:13:00;4.47;;;1.30;;
47966;SDS011;33733;52.456;13.620;2022-09-29T14:15:33;3.72;;;0.93;;
47966;SDS011;33733;52.456;13.620;2022-09-29T14:18:03;3.17;;;1.00;;
47966;SDS011;33733;52.456;13.620;2022-09-29T14:20:46;4.97;;;1.40;;
47966;SDS011;33733;52.456;13.620;2022-09-29T14:23:48;4.25;;;1.20;;
47966;SDS011;33733;52.456;13.620;2022-09-29T14:29:17;4.28;;;1.05;;
47966;SDS011;33733;52.456;13.620;2022-09-29T14:31:47;4.63;;;1.27;;
47966;SDS011;33733;52.456;13.620;2022-09-29T14:34:16;5.43;;;1.50;;
47966;SDS011;33733;52.456;13.620;2022-09-29T14:36:45;4.97;;;1.75;;
47966;SDS011;33733;52.456;13.620;2022-09-29T14:39:13;5.35;;;1.95;;
47966;SDS011;33733;52.456;13.620;2022-09-29T14:41:51;5.28;;;1.40;;
47966;SDS011;33733;52.456;13.620;2022-09-29T14:44:20;4.18;;;1.48;;
47966;SDS011;33733;52.456;13.620;2022-09-29T14:46:50;4.25;;;1.50;;
47966;SDS011;33733;52.456;13.620;2022-09-29T14:53:23;4.38;;;1.40;;
47966;SDS011;33733;52.456;13.620;2022-09-29T14:56:18;4.97;;;1.80;;
47966;SDS011;33733;52.456;13.620;2022-09-29T15:01:28;3.92;;;1.20;;
47966;SDS011;33733;52.456;13.620;2022-09-29T15:04:14;5.38;;;1.30;;
47966;SDS011;33733;52.456;13.620;2022-09-29T15:06:49;4.28;;;1.20;;
47966;SDS011;33733;52.456;13.620;2022-09-29T15:09:17;5.38;;;1.58;;
47966;SDS011;33733;52.456;13.620;2022-09-29T15:11:53;5.65;;;1.15;;
47966;SDS011;33733;52.456;13.620;2022-09-29T15:14:24;5.68;;;1.25;;
47966;SDS011;33733;52.456;13.620;2022-09-29T15:19:55;5.68;;;1.38;;
47966;SDS011;33733;52.456;13.620;2022-09-29T15:22:33;4.45;;;1.20;;
47966;SDS011;33733;52.456;13.620;2022-09-29T15:25:12;7.32;;;1.73;;
47966;SDS011;33733;52.456;13.620;2022-09-29T15:27:49;5.38;;;1.90;;
47966;SDS011;33733;52.456;13.620;2022-09-29T15:30:17;6.50;;;1.58;;
47966;SDS011;33733;52.456;13.620;2022-09-29T15:32:45;5.80;;;1.35;;
47966;SDS011;33733;52.456;13.620;2022-09-29T15:35:15;4.03;;;1.55;;
47966;SDS011;33733;52.456;13.620;2022-09-29T15:40:16;6.10;;;1.80;;
47966;SDS011;33733;52.456;13.620;2022-09-29T15:42:46;4.68;;;1.95;;
47966;SDS011;33733;52.456;13.620;2022-09-29T15:45:17;5.53;;;1.48;;
47966;SDS011;33733;52.456;13.620;2022-09-29T15:47:46;5.35;;;1.60;;
47966;SDS011;33733;52.456;13.620;2022-09-29T15:53:08;4.55;;;1.70;;
47966;SDS011;33733;52.456;13.620;2022-09-29T15:55:36;5.10;;;2.05;;
47966;SDS011;33733;52.456;13.620;2022-09-29T15:58:26;7.13;;;1.83;;
47966;SDS011;33733;52.456;13.620;2022-09-29T16:01:01;5.25;;;1.80;;
47966;SDS011;33733;52.456;13.620;2022-09-29T16:03:36;5.75;;;2.42;;
47966;SDS011;33733;52.456;13.620;2022-09-29T16:09:05;6.50;;;1.80;;
47966;SDS011;33733;52.456;13.620;2022-09-29T16:11:38;5.32;;;1.75;;
47966;SDS011;33733;52.456;13.620;2022-09-29T16:16:54;4.75;;;1.35;;
47966;SDS011;33733;52.456;13.620;2022-09-29T16:24:26;4.32;;;1.50;;
47966;SDS011;33733;52.456;13.620;2022-09-29T16:27:36;4.30;;;1.40;;
47966;SDS011;33733;52.456;13.620;2022-09-29T16:30:32;5.28;;;1.40;;
47966;SDS011;33733;52.456;13.620;2022-09-29T16:33:20;5.45;;;1.33;;
47966;SDS011;33733;52.456;13.620;2022-09-29T16:38:53;4.50;;;1.70;;
47966;SDS011;33733;52.456;13.620;2022-09-29T16:41:17;4.47;;;1.25;;
47966;SDS011;33733;52.456;13.620;2022-09-29T16:44:16;4.97;;;1.20;;
47966;SDS011;33733;52.456;13.620;2022-09-29T16:46:47;5.07;;;1.40;;
47966;SDS011;33733;52.456;13.620;2022-09-29T16:49:25;3.95;;;1.20;;
47966;SDS011;33733;52.456;13.620;2022-09-29T16:52:00;5.00;;;1.45;;
47966;SDS011;33733;52.456;13.620;2022-09-29T16:54:32;3.88;;;1.05;;
47966;SDS011;33733;52.456;13.620;2022-09-29T16:57:22;4.80;;;1.30;;
47966;SDS011;33733;52.456;13.620;2022-09-29T16:59:55;5.05;;;1.52;;
47966;SDS011;33733;52.456;13.620;2022-09-29T17:02:24;5.50;;;1.73;;
47966;SDS011;33733;52.456;13.620;2022-09-29T17:04:52;5.32;;;2.00;;
47966;SDS011;33733;52.456;13.620;2022-09-29T17:07:20;4.63;;;1.45;;
47966;SDS011;33733;52.456;13.620;2022-09-29T17:09:52;5.70;;;2.00;;
47966;SDS011;33733;52.456;13.620;2022-09-29T17:12:21;5.13;;;2.03;;
47966;SDS011;33733;52.456;13.620;2022-09-29T17:14:48;4.88;;;1.80;;
47966;SDS011;33733;52.456;13.620;2022-09-29T17:17:25;6.72;;;2.33;;
47966;SDS011;33733;52.456;13.620;2022-09-29T17:19:54;6.68;;;2.75;;
47966;SDS011;33733;52.456;13.620;2022-09-29T17:22:30;11.23;;;4.93;;
47966;SDS011;33733;52.456;13.620;2022-09-29T17:27:26;8.63;;;2.75;;
47966;SDS011;33733;52.456;13.620;2022-09-29T17:30:12;6.95;;;3.08;;
47966;SDS011;33733;52.456;13.620;2022-09-29T17:32:43;6.20;;;2.75;;
47966;SDS011;33733;52.456;13.620;2022-09-29T17:35:12;6.00;;;2.70;;
47966;SDS011;33733;52.456;13.620;2022-09-29T17:37:40;8.38;;;2.58;;
47966;SDS011;33733;52.456;13.620;2022-09-29T17:40:24;5.93;;;2.72;;
47966;SDS011;33733;52.456;13.620;2022-09-29T17:42:52;6.85;;;2.70;;
47966;SDS011;33733;52.456;13.620;2022-09-29T17:45:20;8.38;;;3.42;;
47966;SDS011;33733;52.456;13.620;2022-09-29T17:47:47;7.13;;;3.17;;
47966;SDS011;33733;52.456;13.620;2022-09-29T17:52:47;8.25;;;3.03;;
47966;SDS011;33733;52.456;13.620;2022-09-29T17:55:13;7.93;;;3.28;;
47966;SDS011;33733;52.456;13.620;2022-09-29T17:57:40;10.65;;;3.42;;
47966;SDS011;33733;52.456;13.620;2022-09-29T18:00:14;7.07;;;3.15;;
47966;SDS011;33733;52.456;13.620;2022-09-29T18:02:43;8.25;;;3.92;;
47966;SDS011;33733;52.456;13.620;2022-09-29T18:05:09;7.10;;;3.10;;
47966;SDS011;33733;52.456;13.620;2022-09-29T18:07:36;9.02;;;4.10;;
47966;SDS011;33733;52.456;13.620;2022-09-29T18:10:14;9.00;;;2.92;;
47966;SDS011;33733;52.456;13.620;2022-09-29T18:12:53;8.80;;;2.95;;